Terminal Aerodrome Forecast
Issued by NWS Grand Rapids, MI

Home | Current Version | Previous Version | Text Only | Print | Product List | Glossary On
Versions: 1 2 3 4 5 6 7 8 9 10 11 12 13 14
000
FTUS43 KGRR 242349
TAFGRR
TAF
KGRR 242349Z 2500/2524 09009KT 6SM -RA OVC080
     FM250400 13011KT 5SM -DZ BR OVC050
     FM251000 17012G20KT 5SM BR OVC025
     FM251600 21022G32KT P6SM VCSH OVC035
     FM252100 23020G28KT P6SM VCSH BKN040=

USA.gov is the U.S. government's official web portal to all federal, state and local government web resources and services.